createdAt,value
2022-07-31T00:00:38.050Z,100.00
2022-07-31T00:03:51.349Z,100.00
2022-07-31T00:06:21.871Z,100.00
2022-07-31T00:09:49.180Z,100.00
2022-07-31T00:12:02.094Z,100.00
2022-07-31T00:14:31.982Z,100.00
2022-07-31T00:17:21.483Z,100.00
2022-07-31T00:20:19.679Z,100.00
2022-07-31T00:23:27.406Z,100.00
2022-07-31T00:26:48.377Z,100.00
2022-07-31T00:30:14.147Z,100.00
2022-07-31T00:32:46.257Z,100.00
2022-07-31T00:35:20.954Z,100.00
2022-07-31T00:38:26.913Z,100.00
2022-07-31T00:41:02.515Z,100.00
2022-07-31T00:43:35.335Z,100.00
2022-07-31T00:47:15.301Z,100.00
2022-07-31T00:50:00.555Z,100.00
2022-07-31T00:52:32.783Z,100.00
2022-07-31T00:55:19.825Z,100.00
2022-07-31T00:57:48.580Z,100.00
2022-07-31T01:00:42.228Z,100.00
2022-07-31T01:03:11.368Z,100.00
2022-07-31T01:05:59.617Z,100.00
2022-07-31T01:08:55.843Z,100.00
2022-07-31T01:11:37.101Z,100.00
2022-07-31T01:14:29.258Z,100.00
2022-07-31T01:17:18.050Z,100.00
2022-07-31T01:19:51.757Z,100.00
2022-07-31T01:22:59.604Z,100.00
2022-07-31T01:26:33.527Z,100.00
2022-07-31T01:29:31.373Z,100.00
2022-07-31T01:32:33.833Z,100.00
2022-07-31T01:35:51.403Z,100.00
2022-07-31T01:38:45.562Z,100.00
2022-07-31T01:41:17.506Z,100.00
2022-07-31T01:44:13.652Z,100.00
2022-07-31T01:46:43.353Z,100.00
2022-07-31T01:49:43.170Z,100.00
2022-07-31T01:52:16.685Z,100.00
2022-07-31T01:55:22.284Z,100.00
2022-07-31T01:58:17.559Z,100.00
2022-07-31T02:01:01.579Z,100.00
2022-07-31T02:03:43.485Z,100.00
2022-07-31T02:06:28.291Z,100.00
2022-07-31T02:09:37.358Z,100.00
2022-07-31T02:12:15.703Z,100.00
2022-07-31T02:15:00.850Z,100.00
2022-07-31T02:17:49.576Z,100.00
2022-07-31T02:21:06.271Z,100.00
2022-07-31T02:24:11.005Z,100.00
2022-07-31T02:27:57.040Z,100.00
2022-07-31T02:30:46.744Z,100.00
2022-07-31T02:34:02.154Z,100.00
2022-07-31T02:37:10.177Z,100.00
2022-07-31T02:40:00.644Z,100.00
2022-07-31T02:43:17.343Z,100.00
2022-07-31T02:47:04.005Z,100.00
2022-07-31T02:49:34.925Z,100.00
2022-07-31T02:52:45.368Z,100.00
2022-07-31T02:56:15.805Z,100.00
2022-07-31T02:59:43.424Z,100.00
2022-07-31T03:02:59.913Z,100.00
2022-07-31T03:06:31.411Z,100.00
2022-07-31T03:09:47.549Z,100.00
2022-07-31T03:12:57.060Z,100.00
2022-07-31T03:16:25.427Z,100.00
2022-07-31T03:19:31.277Z,100.00
2022-07-31T03:22:58.961Z,100.00
2022-07-31T03:25:30.023Z,100.00
2022-07-31T03:29:01.217Z,100.00
2022-07-31T03:32:31.206Z,100.00
2022-07-31T03:35:59.645Z,100.00
2022-07-31T03:39:46.237Z,100.00
2022-07-31T03:42:53.436Z,100.00
2022-07-31T03:46:22.262Z,100.00
2022-07-31T03:50:09.524Z,100.00
2022-07-31T03:53:11.265Z,100.00
2022-07-31T03:56:21.531Z,100.00
2022-07-31T03:59:22.861Z,100.00
2022-07-31T04:02:34.298Z,100.00
2022-07-31T04:06:27.988Z,100.00
2022-07-31T04:10:00.106Z,100.00
2022-07-31T04:13:07.784Z,100.00
2022-07-31T04:16:54.742Z,100.00
2022-07-31T04:20:17.745Z,100.00
2022-07-31T04:23:49.469Z,100.00
2022-07-31T04:27:35.971Z,100.00
2022-07-31T04:30:59.454Z,100.00
2022-07-31T04:34:34.491Z,100.00
2022-07-31T04:38:21.184Z,100.00
2022-07-31T04:41:52.205Z,100.00
2022-07-31T04:45:20.273Z,100.00
2022-07-31T04:48:27.563Z,100.00
2022-07-31T04:52:04.164Z,100.00
2022-07-31T04:55:51.273Z,100.00
2022-07-31T04:59:58.107Z,100.00
2022-07-31T05:03:13.529Z,100.00
2022-07-31T05:07:16.124Z,100.00
2022-07-31T05:11:01.705Z,100.00
2022-07-31T05:13:52.051Z,100.00
2022-07-31T05:17:25.416Z,100.00
2022-07-31T05:21:11.966Z,100.00
2022-07-31T05:24:59.418Z,100.00
2022-07-31T05:28:30.689Z,100.00
2022-07-31T05:32:00.621Z,100.00
2022-07-31T05:35:29.676Z,100.00
2022-07-31T05:39:15.513Z,100.00
2022-07-31T05:43:02.707Z,100.00
2022-07-31T05:46:42.825Z,100.00
2022-07-31T05:50:29.298Z,100.00
2022-07-31T05:54:17.298Z,100.00
2022-07-31T05:58:02.794Z,100.00
2022-07-31T06:01:49.817Z,100.00
2022-07-31T06:05:37.120Z,100.00
2022-07-31T06:09:24.129Z,100.00
2022-07-31T06:13:11.729Z,100.00
2022-07-31T06:16:59.608Z,100.00
2022-07-31T06:20:47.297Z,100.00
2022-07-31T06:24:34.356Z,100.00
2022-07-31T06:28:10.632Z,100.00
2022-07-31T06:31:57.585Z,100.00
2022-07-31T06:35:44.934Z,100.00
2022-07-31T06:39:54.406Z,100.00
2022-07-31T06:43:42.881Z,100.00
2022-07-31T06:47:45.611Z,100.00
2022-07-31T06:51:37.321Z,100.00
2022-07-31T06:55:25.210Z,100.00
2022-07-31T06:59:13.729Z,100.00
2022-07-31T07:03:21.231Z,100.00
2022-07-31T07:07:09.945Z,100.00
2022-07-31T07:10:58.169Z,100.00
2022-07-31T07:14:46.654Z,100.00
2022-07-31T07:18:34.433Z,100.00
2022-07-31T07:22:31.340Z,100.00
2022-07-31T07:26:20.058Z,100.00
2022-07-31T07:30:07.387Z,100.00
2022-07-31T07:33:54.741Z,100.00
2022-07-31T07:37:42.731Z,100.00
2022-07-31T07:41:30.553Z,100.00
2022-07-31T07:45:17.900Z,100.00
2022-07-31T07:49:05.955Z,100.00
2022-07-31T07:52:51.449Z,100.00
2022-07-31T07:56:44.352Z,100.00
2022-07-31T08:00:15.325Z,100.00
2022-07-31T08:04:07.393Z,100.00
2022-07-31T08:07:55.298Z,100.00
2022-07-31T08:12:02.376Z,100.00
2022-07-31T08:16:01.881Z,100.00
2022-07-31T08:19:52.531Z,100.00
2022-07-31T08:23:40.019Z,98.01
2022-07-31T08:27:47.988Z,95.11
2022-07-31T08:31:36.495Z,91.32
2022-07-31T08:35:36.350Z,90.62
2022-07-31T08:39:24.740Z,89.53
2022-07-31T08:44:00.381Z,87.52
2022-07-31T08:47:20.394Z,85.40
2022-07-31T08:51:07.571Z,85.41
2022-07-31T08:54:54.663Z,84.93
2022-07-31T08:58:43.921Z,85.65
2022-07-31T09:02:14.986Z,81.22
2022-07-31T09:06:03.057Z,78.49
2022-07-31T09:09:52.582Z,78.10
2022-07-31T09:13:40.493Z,72.64
2022-07-31T09:17:28.762Z,68.52
2022-07-31T09:21:18.960Z,71.76
2022-07-31T09:25:07.273Z,69.83
2022-07-31T09:28:55.005Z,66.45
2022-07-31T09:32:52.126Z,69.77
2022-07-31T09:36:49.207Z,65.04
2022-07-31T09:40:57.839Z,64.39
2022-07-31T09:45:01.731Z,60.85
2022-07-31T09:48:48.705Z,60.54
2022-07-31T09:52:27.032Z,63.10
2022-07-31T09:56:14.696Z,61.00
2022-07-31T10:00:01.971Z,59.67
2022-07-31T10:03:49.992Z,57.26
2022-07-31T10:07:43.239Z,56.20
2022-07-31T10:11:34.579Z,55.53
2022-07-31T10:15:34.916Z,55.21
2022-07-31T10:19:21.398Z,50.64
2022-07-31T10:23:19.899Z,52.25
2022-07-31T10:27:09.991Z,49.61
2022-07-31T10:31:00.127Z,51.17
2022-07-31T10:34:52.360Z,50.05
2022-07-31T10:38:43.850Z,47.94
2022-07-31T10:42:47.440Z,47.06
2022-07-31T10:46:36.821Z,49.08
2022-07-31T10:50:28.435Z,46.36
2022-07-31T10:54:14.340Z,46.54
2022-07-31T10:57:17.128Z,46.75
2022-07-31T11:01:08.473Z,46.23
2022-07-31T11:04:43.941Z,45.30
2022-07-31T11:08:42.179Z,45.06
2022-07-31T11:12:13.644Z,45.13
2022-07-31T11:15:21.881Z,45.37
2022-07-31T11:19:00.422Z,44.87
2022-07-31T11:22:30.629Z,44.74
2022-07-31T11:25:52.549Z,43.96
2022-07-31T11:30:00.319Z,44.06
2022-07-31T11:32:36.130Z,42.70
2022-07-31T11:35:37.432Z,44.48
2022-07-31T11:38:48.613Z,41.40
2022-07-31T11:41:44.584Z,41.36
2022-07-31T11:44:24.549Z,41.42
2022-07-31T11:48:11.263Z,42.14
2022-07-31T11:51:04.941Z,42.45
2022-07-31T11:54:02.379Z,43.72
2022-07-31T11:57:15.032Z,42.29
2022-07-31T12:01:10.788Z,41.71
2022-07-31T12:04:31.648Z,40.94
2022-07-31T12:07:47.759Z,42.76
2022-07-31T12:11:31.635Z,41.32
2022-07-31T12:14:25.293Z,40.99
2022-07-31T12:17:55.923Z,41.40
2022-07-31T12:21:44.808Z,41.06
2022-07-31T12:25:39.567Z,41.84
2022-07-31T12:29:13.994Z,39.31
2022-07-31T12:32:29.607Z,39.50
2022-07-31T12:35:56.184Z,39.61
2022-07-31T12:39:47.477Z,40.55
2022-07-31T12:43:27.535Z,39.41
2022-07-31T12:47:16.713Z,39.08
2022-07-31T12:50:07.068Z,39.34
2022-07-31T12:53:56.858Z,38.90
2022-07-31T12:57:11.696Z,39.57
2022-07-31T13:00:25.808Z,38.74
2022-07-31T13:03:56.680Z,39.21
2022-07-31T13:07:33.397Z,39.95
2022-07-31T13:10:32.110Z,38.68
2022-07-31T13:13:41.322Z,37.94
2022-07-31T13:16:50.438Z,38.14
2022-07-31T13:19:22.907Z,37.78
2022-07-31T13:22:12.186Z,37.69
2022-07-31T13:25:51.788Z,37.58
2022-07-31T13:29:10.139Z,36.53
2022-07-31T13:32:20.723Z,36.64
2022-07-31T13:35:26.465Z,36.04
2022-07-31T13:38:03.671Z,35.99
2022-07-31T13:41:10.536Z,36.08
2022-07-31T13:44:00.431Z,35.66
2022-07-31T13:46:44.675Z,34.49
2022-07-31T13:49:54.708Z,35.15
2022-07-31T13:52:47.965Z,35.97
2022-07-31T13:55:23.977Z,35.06
2022-07-31T13:57:59.817Z,35.90
2022-07-31T14:00:41.417Z,35.09
2022-07-31T14:03:37.050Z,34.35
2022-07-31T14:06:07.622Z,35.03
2022-07-31T14:09:04.571Z,34.59
2022-07-31T14:12:03.822Z,34.02
2022-07-31T14:14:57.650Z,34.73
2022-07-31T14:17:48.499Z,33.73
2022-07-31T14:20:42.785Z,35.49
2022-07-31T14:23:40.689Z,33.89
2022-07-31T14:26:38.208Z,34.68
2022-07-31T14:29:22.892Z,34.00
2022-07-31T14:31:52.575Z,34.31
2022-07-31T14:34:21.216Z,33.72
2022-07-31T14:37:25.122Z,34.40
2022-07-31T14:40:15.783Z,34.05
2022-07-31T14:42:52.223Z,33.46
2022-07-31T14:45:51.700Z,33.28
2022-07-31T14:48:23.515Z,33.94
2022-07-31T14:51:23.934Z,33.69
2022-07-31T14:54:13.450Z,34.07
2022-07-31T14:57:00.684Z,34.54
2022-07-31T14:59:53.966Z,34.38
2022-07-31T15:02:23.904Z,34.59
2022-07-31T15:06:40.956Z,33.76
2022-07-31T15:07:54.965Z,34.01
2022-07-31T15:10:24.865Z,33.75
2022-07-31T15:12:53.847Z,33.39
2022-07-31T15:15:28.607Z,33.27
2022-07-31T15:18:01.254Z,35.15
2022-07-31T15:20:50.961Z,34.40
2022-07-31T15:23:35.970Z,33.66
2022-07-31T15:26:05.796Z,33.51
2022-07-31T15:28:35.468Z,33.62
2022-07-31T15:31:05.447Z,33.36
2022-07-31T15:33:37.018Z,33.31
2022-07-31T15:36:09.447Z,33.69
2022-07-31T15:38:55.322Z,33.09
2022-07-31T15:41:27.317Z,34.15
2022-07-31T15:43:56.372Z,33.12
2022-07-31T15:46:25.758Z,33.66
2022-07-31T15:49:13.713Z,33.38
2022-07-31T15:51:44.449Z,32.31
2022-07-31T15:54:25.170Z,32.58
2022-07-31T15:56:56.425Z,32.45
2022-07-31T15:59:25.502Z,33.01
2022-07-31T16:01:59.939Z,34.07
2022-07-31T16:04:48.601Z,33.33
2022-07-31T16:08:29.638Z,33.74
2022-07-31T16:10:16.125Z,33.16
2022-07-31T16:12:47.837Z,32.91
2022-07-31T16:15:18.636Z,33.63
2022-07-31T16:17:52.782Z,32.90
2022-07-31T16:20:26.067Z,32.70
2022-07-31T16:22:58.224Z,33.55
2022-07-31T16:25:28.952Z,32.63
2022-07-31T16:28:01.277Z,33.70
2022-07-31T16:30:52.779Z,32.64
2022-07-31T16:33:37.223Z,33.29
2022-07-31T16:36:06.501Z,33.96
2022-07-31T16:38:40.956Z,33.59
2022-07-31T16:41:34.154Z,33.02
2022-07-31T16:44:02.709Z,32.88
2022-07-31T16:46:34.093Z,33.70
2022-07-31T16:49:31.911Z,34.14
2022-07-31T16:51:56.660Z,33.63
2022-07-31T16:54:28.354Z,33.64
2022-07-31T16:56:56.803Z,34.53
2022-07-31T16:59:25.576Z,34.17
2022-07-31T17:02:12.624Z,33.37
2022-07-31T17:04:43.550Z,34.07
2022-07-31T17:07:12.922Z,35.57
2022-07-31T17:09:41.868Z,35.12
2022-07-31T17:12:20.588Z,34.03
2022-07-31T17:15:17.152Z,34.67
2022-07-31T17:17:57.215Z,35.05
2022-07-31T17:20:26.292Z,35.26
2022-07-31T17:22:55.134Z,35.44
2022-07-31T17:25:33.187Z,36.35
2022-07-31T17:28:04.999Z,36.67
2022-07-31T17:30:42.776Z,40.04
2022-07-31T17:33:13.670Z,41.23
2022-07-31T17:35:53.134Z,42.44
2022-07-31T17:38:37.425Z,42.54
2022-07-31T17:41:06.834Z,43.47
2022-07-31T17:44:01.627Z,44.32
2022-07-31T17:46:36.336Z,44.56
2022-07-31T17:49:19.710Z,44.70
2022-07-31T17:51:58.897Z,44.64
2022-07-31T17:54:41.562Z,44.77
2022-07-31T17:57:10.201Z,45.15
2022-07-31T17:59:38.933Z,45.71
2022-07-31T18:02:36.356Z,45.85
2022-07-31T18:05:08.291Z,45.83
2022-07-31T18:07:37.987Z,46.36
2022-07-31T18:10:09.403Z,46.51
2022-07-31T18:12:57.038Z,46.77
2022-07-31T18:15:34.514Z,47.01
2022-07-31T18:18:05.611Z,47.99
2022-07-31T18:20:39.620Z,48.16
2022-07-31T18:23:10.081Z,48.61
2022-07-31T18:25:39.655Z,49.33
2022-07-31T18:28:09.152Z,49.27
2022-07-31T18:30:41.037Z,49.65
2022-07-31T18:33:17.656Z,50.30
2022-07-31T18:35:48.208Z,51.34
2022-07-31T18:38:38.561Z,52.30
2022-07-31T18:41:18.434Z,53.04
2022-07-31T18:43:50.061Z,53.39
2022-07-31T18:46:39.191Z,54.56
2022-07-31T18:51:00.842Z,55.84
2022-07-31T18:52:14.048Z,55.39
2022-07-31T18:54:44.280Z,58.04
2022-07-31T18:57:16.529Z,58.15
2022-07-31T18:59:45.549Z,60.59
2022-07-31T19:02:16.139Z,62.04
2022-07-31T19:05:00.509Z,63.54
2022-07-31T19:07:30.429Z,63.91
2022-07-31T19:10:08.129Z,63.85
2022-07-31T19:12:37.275Z,65.04
2022-07-31T19:15:27.105Z,68.01
2022-07-31T19:17:58.607Z,76.00
2022-07-31T19:20:56.656Z,82.53
2022-07-31T19:23:22.693Z,83.77
2022-07-31T19:26:03.646Z,89.16
2022-07-31T19:28:34.400Z,89.02
2022-07-31T19:31:15.167Z,87.29
2022-07-31T19:34:04.643Z,86.83
2022-07-31T19:36:43.579Z,85.78
2022-07-31T19:39:33.021Z,87.22
2022-07-31T19:42:11.781Z,94.48
2022-07-31T19:45:07.070Z,99.38
2022-07-31T19:48:35.525Z,97.59
2022-07-31T19:51:44.499Z,94.13
2022-07-31T19:54:49.779Z,98.10
2022-07-31T19:57:24.566Z,99.96
2022-07-31T19:59:59.258Z,100.00
2022-07-31T20:02:30.896Z,100.00
2022-07-31T20:05:16.372Z,100.00
2022-07-31T20:07:48.170Z,100.00
2022-07-31T20:10:28.706Z,99.91
2022-07-31T20:13:08.302Z,99.34
2022-07-31T20:15:50.959Z,100.00
2022-07-31T20:18:28.924Z,99.94
2022-07-31T20:21:12.723Z,99.05
2022-07-31T20:23:41.927Z,98.98
2022-07-31T20:26:14.678Z,99.99
2022-07-31T20:28:44.725Z,100.00
2022-07-31T20:31:21.713Z,100.00
2022-07-31T20:33:57.624Z,100.00
2022-07-31T20:36:29.379Z,100.00
2022-07-31T20:38:59.038Z,100.00
2022-07-31T20:41:27.885Z,100.00
2022-07-31T20:43:56.747Z,100.00
2022-07-31T20:46:32.418Z,100.00
2022-07-31T20:49:01.018Z,100.00
2022-07-31T20:51:44.411Z,100.00
2022-07-31T20:54:34.555Z,100.00
2022-07-31T20:57:03.784Z,100.00
2022-07-31T20:59:36.345Z,100.00
2022-07-31T21:02:05.009Z,100.00
2022-07-31T21:04:36.329Z,100.00
2022-07-31T21:07:08.336Z,100.00
2022-07-31T21:09:44.366Z,100.00
2022-07-31T21:12:15.171Z,100.00
2022-07-31T21:14:46.181Z,100.00
2022-07-31T21:17:14.792Z,100.00
2022-07-31T21:19:43.665Z,100.00
2022-07-31T21:22:11.827Z,100.00
2022-07-31T21:24:40.141Z,100.00
2022-07-31T21:27:12.213Z,100.00
2022-07-31T21:29:43.923Z,100.00
2022-07-31T21:32:12.757Z,100.00
2022-07-31T21:34:41.371Z,100.00
2022-07-31T21:37:21.002Z,100.00
2022-07-31T21:39:55.443Z,100.00
2022-07-31T21:42:24.190Z,100.00
2022-07-31T21:44:55.476Z,100.00
2022-07-31T21:47:28.251Z,100.00
2022-07-31T21:50:29.205Z,100.00
2022-07-31T21:53:01.409Z,100.00
2022-07-31T21:55:32.979Z,100.00
2022-07-31T21:58:09.186Z,100.00
2022-07-31T22:00:42.696Z,100.00
2022-07-31T22:03:11.081Z,100.00
2022-07-31T22:05:58.517Z,100.00
2022-07-31T22:08:27.515Z,100.00
2022-07-31T22:11:03.405Z,100.00
2022-07-31T22:13:35.002Z,100.00
2022-07-31T22:16:11.943Z,100.00
2022-07-31T22:18:40.780Z,100.00
2022-07-31T22:21:10.407Z,100.00
2022-07-31T22:23:38.636Z,100.00
2022-07-31T22:26:07.166Z,100.00
2022-07-31T22:28:37.731Z,100.00
2022-07-31T22:31:06.536Z,100.00
2022-07-31T22:33:43.228Z,100.00
2022-07-31T22:36:16.675Z,100.00
2022-07-31T22:39:05.242Z,100.00
2022-07-31T22:41:33.706Z,100.00
2022-07-31T22:44:13.706Z,100.00
2022-07-31T22:46:52.075Z,100.00
2022-07-31T22:49:21.531Z,100.00
2022-07-31T22:52:13.636Z,100.00
2022-07-31T22:54:48.091Z,100.00
2022-07-31T22:57:24.696Z,100.00
2022-07-31T22:59:53.293Z,100.00
2022-07-31T23:02:34.627Z,100.00
2022-07-31T23:05:05.618Z,100.00
2022-07-31T23:07:36.714Z,100.00
2022-07-31T23:10:07.956Z,100.00
2022-07-31T23:12:36.492Z,100.00
2022-07-31T23:15:06.140Z,100.00
2022-07-31T23:17:34.469Z,100.00
2022-07-31T23:20:06.914Z,100.00
2022-07-31T23:22:40.481Z,100.00
2022-07-31T23:25:09.100Z,100.00
2022-07-31T23:27:37.463Z,100.00
2022-07-31T23:30:06.120Z,100.00
2022-07-31T23:32:47.668Z,100.00
2022-07-31T23:35:16.095Z,100.00
2022-07-31T23:37:44.731Z,100.00
2022-07-31T23:40:16.857Z,100.00
2022-07-31T23:42:45.210Z,100.00
2022-07-31T23:45:17.317Z,100.00
2022-07-31T23:47:46.939Z,100.00
2022-07-31T23:50:25.938Z,100.00
2022-07-31T23:52:55.417Z,100.00
2022-07-31T23:55:29.356Z,100.00
2022-07-31T23:58:00.100Z,100.00
